sensor_id;sensor_type;location;lat;lon;timestamp;P1;durP1;ratioP1;P2;durP2;ratioP2
29848;SDS011;16728;50.832;5.590;2022-08-06T00:01:33;3.55;;;1.52;;
29848;SDS011;16728;50.832;5.590;2022-08-06T00:04:35;4.80;;;1.35;;
29848;SDS011;16728;50.832;5.590;2022-08-06T00:07:37;3.38;;;1.50;;
29848;SDS011;16728;50.832;5.590;2022-08-06T00:10:48;3.13;;;1.25;;
29848;SDS011;16728;50.832;5.590;2022-08-06T00:13:50;3.60;;;1.60;;
29848;SDS011;16728;50.832;5.590;2022-08-06T00:16:52;5.68;;;2.00;;
29848;SDS011;16728;50.832;5.590;2022-08-06T00:19:56;2.85;;;1.40;;
29848;SDS011;16728;50.832;5.590;2022-08-06T00:23:01;3.85;;;1.60;;
29848;SDS011;16728;50.832;5.590;2022-08-06T00:26:03;7.28;;;1.83;;
29848;SDS011;16728;50.832;5.590;2022-08-06T00:29:05;3.97;;;1.95;;
29848;SDS011;16728;50.832;5.590;2022-08-06T00:32:17;5.25;;;1.48;;
29848;SDS011;16728;50.832;5.590;2022-08-06T00:35:28;2.15;;;1.63;;
29848;SDS011;16728;50.832;5.590;2022-08-06T00:38:30;2.28;;;1.55;;
29848;SDS011;16728;50.832;5.590;2022-08-06T00:41:33;6.07;;;1.30;;
29848;SDS011;16728;50.832;5.590;2022-08-06T00:44:42;4.78;;;1.60;;
29848;SDS011;16728;50.832;5.590;2022-08-06T00:47:48;2.78;;;1.55;;
29848;SDS011;16728;50.832;5.590;2022-08-06T00:51:04;2.85;;;1.25;;
29848;SDS011;16728;50.832;5.590;2022-08-06T00:54:19;5.07;;;1.42;;
29848;SDS011;16728;50.832;5.590;2022-08-06T00:57:36;5.35;;;1.42;;
29848;SDS011;16728;50.832;5.590;2022-08-06T01:00:38;4.97;;;1.60;;
29848;SDS011;16728;50.832;5.590;2022-08-06T01:03:45;3.20;;;1.38;;
29848;SDS011;16728;50.832;5.590;2022-08-06T01:06:52;3.22;;;1.73;;
29848;SDS011;16728;50.832;5.590;2022-08-06T01:09:58;3.90;;;1.50;;
29848;SDS011;16728;50.832;5.590;2022-08-06T01:13:02;5.00;;;1.80;;
29848;SDS011;16728;50.832;5.590;2022-08-06T01:27:46;6.80;;;1.67;;
29848;SDS011;16728;50.832;5.590;2022-08-06T01:31:02;7.38;;;1.50;;
29848;SDS011;16728;50.832;5.590;2022-08-06T01:34:42;3.70;;;1.42;;
29848;SDS011;16728;50.832;5.590;2022-08-06T01:37:45;5.47;;;1.85;;
29848;SDS011;16728;50.832;5.590;2022-08-06T01:40:52;6.53;;;2.53;;
29848;SDS011;16728;50.832;5.590;2022-08-06T01:43:56;4.78;;;1.40;;
29848;SDS011;16728;50.832;5.590;2022-08-06T01:47:17;5.30;;;1.70;;
29848;SDS011;16728;50.832;5.590;2022-08-06T01:50:35;3.90;;;1.70;;
29848;SDS011;16728;50.832;5.590;2022-08-06T01:53:39;6.93;;;1.90;;
29848;SDS011;16728;50.832;5.590;2022-08-06T01:57:03;4.70;;;1.73;;
29848;SDS011;16728;50.832;5.590;2022-08-06T02:00:14;7.35;;;1.77;;
29848;SDS011;16728;50.832;5.590;2022-08-06T02:03:22;4.43;;;2.00;;
29848;SDS011;16728;50.832;5.590;2022-08-06T02:06:49;7.60;;;2.35;;
29848;SDS011;16728;50.832;5.590;2022-08-06T02:09:52;3.55;;;1.88;;
29848;SDS011;16728;50.832;5.590;2022-08-06T02:12:56;5.07;;;1.80;;
29848;SDS011;16728;50.832;5.590;2022-08-06T02:16:03;5.95;;;2.00;;
29848;SDS011;16728;50.832;5.590;2022-08-06T02:19:12;4.25;;;1.67;;
29848;SDS011;16728;50.832;5.590;2022-08-06T02:22:31;2.30;;;1.40;;
29848;SDS011;16728;50.832;5.590;2022-08-06T02:25:38;4.07;;;1.88;;
29848;SDS011;16728;50.832;5.590;2022-08-06T02:28:43;3.33;;;1.67;;
29848;SDS011;16728;50.832;5.590;2022-08-06T02:31:50;3.63;;;1.63;;
29848;SDS011;16728;50.832;5.590;2022-08-06T02:34:53;3.13;;;1.50;;
29848;SDS011;16728;50.832;5.590;2022-08-06T02:38:01;8.25;;;1.90;;
29848;SDS011;16728;50.832;5.590;2022-08-06T02:41:11;3.97;;;1.58;;
29848;SDS011;16728;50.832;5.590;2022-08-06T02:47:38;5.53;;;1.63;;
29848;SDS011;16728;50.832;5.590;2022-08-06T02:51:04;3.53;;;1.98;;
29848;SDS011;16728;50.832;5.590;2022-08-06T02:57:37;7.05;;;2.35;;
29848;SDS011;16728;50.832;5.590;2022-08-06T03:00:52;5.18;;;2.05;;
29848;SDS011;16728;50.832;5.590;2022-08-06T03:07:02;6.18;;;1.90;;
29848;SDS011;16728;50.832;5.590;2022-08-06T03:10:27;6.32;;;2.50;;
29848;SDS011;16728;50.832;5.590;2022-08-06T03:13:31;4.25;;;1.95;;
29848;SDS011;16728;50.832;5.590;2022-08-06T03:16:36;3.78;;;2.33;;
29848;SDS011;16728;50.832;5.590;2022-08-06T03:19:46;4.63;;;1.83;;
29848;SDS011;16728;50.832;5.590;2022-08-06T03:23:00;4.53;;;1.92;;
29848;SDS011;16728;50.832;5.590;2022-08-06T03:26:05;6.40;;;2.38;;
29848;SDS011;16728;50.832;5.590;2022-08-06T03:29:11;3.13;;;1.92;;
29848;SDS011;16728;50.832;5.590;2022-08-06T03:32:15;7.32;;;3.13;;
29848;SDS011;16728;50.832;5.590;2022-08-06T03:35:37;3.30;;;2.47;;
29848;SDS011;16728;50.832;5.590;2022-08-06T03:39:01;5.13;;;2.38;;
29848;SDS011;16728;50.832;5.590;2022-08-06T03:45:09;8.18;;;2.30;;
29848;SDS011;16728;50.832;5.590;2022-08-06T03:48:38;4.35;;;2.20;;
29848;SDS011;16728;50.832;5.590;2022-08-06T03:51:42;4.32;;;2.25;;
29848;SDS011;16728;50.832;5.590;2022-08-06T03:54:55;5.35;;;2.00;;
29848;SDS011;16728;50.832;5.590;2022-08-06T03:58:07;3.92;;;2.45;;
29848;SDS011;16728;50.832;5.590;2022-08-06T04:01:28;5.30;;;2.50;;
29848;SDS011;16728;50.832;5.590;2022-08-06T04:04:34;5.82;;;2.40;;
29848;SDS011;16728;50.832;5.590;2022-08-06T04:10:56;3.47;;;2.30;;
29848;SDS011;16728;50.832;5.590;2022-08-06T04:14:00;7.20;;;2.28;;
29848;SDS011;16728;50.832;5.590;2022-08-06T04:17:08;8.27;;;2.05;;
29848;SDS011;16728;50.832;5.590;2022-08-06T04:20:13;3.85;;;2.10;;
29848;SDS011;16728;50.832;5.590;2022-08-06T04:23:37;7.47;;;2.55;;
29848;SDS011;16728;50.832;5.590;2022-08-06T04:26:40;4.45;;;2.15;;
29848;SDS011;16728;50.832;5.590;2022-08-06T04:29:45;8.20;;;2.50;;
29848;SDS011;16728;50.832;5.590;2022-08-06T04:32:58;6.90;;;2.40;;
29848;SDS011;16728;50.832;5.590;2022-08-06T04:36:04;6.35;;;2.00;;
29848;SDS011;16728;50.832;5.590;2022-08-06T04:39:18;6.57;;;2.33;;
29848;SDS011;16728;50.832;5.590;2022-08-06T04:42:37;5.68;;;2.40;;
29848;SDS011;16728;50.832;5.590;2022-08-06T04:45:43;5.60;;;2.47;;
29848;SDS011;16728;50.832;5.590;2022-08-06T04:49:06;4.60;;;2.13;;
29848;SDS011;16728;50.832;5.590;2022-08-06T04:52:24;5.85;;;2.40;;
29848;SDS011;16728;50.832;5.590;2022-08-06T04:55:48;7.50;;;2.40;;
29848;SDS011;16728;50.832;5.590;2022-08-06T04:59:04;6.70;;;2.83;;
29848;SDS011;16728;50.832;5.590;2022-08-06T05:02:08;7.30;;;2.60;;
29848;SDS011;16728;50.832;5.590;2022-08-06T05:05:12;9.50;;;2.50;;
29848;SDS011;16728;50.832;5.590;2022-08-06T05:08:21;6.45;;;2.80;;
29848;SDS011;16728;50.832;5.590;2022-08-06T05:11:30;7.38;;;2.50;;
29848;SDS011;16728;50.832;5.590;2022-08-06T05:18:23;14.27;;;2.47;;
29848;SDS011;16728;50.832;5.590;2022-08-06T05:21:46;8.45;;;2.47;;
29848;SDS011;16728;50.832;5.590;2022-08-06T05:25:09;6.93;;;2.55;;
29848;SDS011;16728;50.832;5.590;2022-08-06T05:28:23;5.68;;;2.65;;
29848;SDS011;16728;50.832;5.590;2022-08-06T05:31:29;8.02;;;2.67;;
29848;SDS011;16728;50.832;5.590;2022-08-06T05:34:40;6.25;;;2.88;;
29848;SDS011;16728;50.832;5.590;2022-08-06T05:37:52;10.55;;;3.28;;
29848;SDS011;16728;50.832;5.590;2022-08-06T05:41:08;6.20;;;2.67;;
29848;SDS011;16728;50.832;5.590;2022-08-06T05:44:11;5.70;;;2.97;;
29848;SDS011;16728;50.832;5.590;2022-08-06T05:47:17;8.93;;;3.17;;
29848;SDS011;16728;50.832;5.590;2022-08-06T05:50:26;10.80;;;2.80;;
29848;SDS011;16728;50.832;5.590;2022-08-06T05:53:33;7.25;;;2.50;;
29848;SDS011;16728;50.832;5.590;2022-08-06T05:57:02;12.18;;;3.03;;
29848;SDS011;16728;50.832;5.590;2022-08-06T06:00:17;8.20;;;3.25;;
29848;SDS011;16728;50.832;5.590;2022-08-06T06:03:40;7.18;;;3.65;;
29848;SDS011;16728;50.832;5.590;2022-08-06T06:06:49;7.00;;;3.22;;
29848;SDS011;16728;50.832;5.590;2022-08-06T06:09:55;11.60;;;2.97;;
29848;SDS011;16728;50.832;5.590;2022-08-06T06:13:04;7.50;;;2.88;;
29848;SDS011;16728;50.832;5.590;2022-08-06T06:19:43;6.50;;;2.95;;
29848;SDS011;16728;50.832;5.590;2022-08-06T06:26:23;7.70;;;2.85;;
29848;SDS011;16728;50.832;5.590;2022-08-06T06:33:15;6.68;;;3.00;;
29848;SDS011;16728;50.832;5.590;2022-08-06T06:36:50;13.18;;;3.95;;
29848;SDS011;16728;50.832;5.590;2022-08-06T06:40:39;10.93;;;4.05;;
29848;SDS011;16728;50.832;5.590;2022-08-06T06:46:49;8.43;;;4.45;;
29848;SDS011;16728;50.832;5.590;2022-08-06T06:49:58;9.35;;;4.75;;
29848;SDS011;16728;50.832;5.590;2022-08-06T06:53:08;8.52;;;3.75;;
29848;SDS011;16728;50.832;5.590;2022-08-06T06:56:13;13.57;;;4.28;;
29848;SDS011;16728;50.832;5.590;2022-08-06T06:59:56;9.40;;;4.18;;
29848;SDS011;16728;50.832;5.590;2022-08-06T07:03:13;9.88;;;3.88;;
29848;SDS011;16728;50.832;5.590;2022-08-06T07:06:18;9.93;;;3.80;;
29848;SDS011;16728;50.832;5.590;2022-08-06T07:09:41;7.33;;;3.10;;
29848;SDS011;16728;50.832;5.590;2022-08-06T07:13:00;9.95;;;3.33;;
29848;SDS011;16728;50.832;5.590;2022-08-06T07:16:16;6.70;;;3.13;;
29848;SDS011;16728;50.832;5.590;2022-08-06T07:19:35;5.63;;;3.35;;
29848;SDS011;16728;50.832;5.590;2022-08-06T07:22:46;8.57;;;3.45;;
29848;SDS011;16728;50.832;5.590;2022-08-06T07:26:08;9.10;;;3.92;;
29848;SDS011;16728;50.832;5.590;2022-08-06T07:29:15;8.75;;;3.05;;
29848;SDS011;16728;50.832;5.590;2022-08-06T07:32:38;8.80;;;3.03;;
29848;SDS011;16728;50.832;5.590;2022-08-06T07:35:50;4.90;;;2.65;;
29848;SDS011;16728;50.832;5.590;2022-08-06T07:38:56;8.65;;;3.15;;
29848;SDS011;16728;50.832;5.590;2022-08-06T07:42:06;6.38;;;2.22;;
29848;SDS011;16728;50.832;5.590;2022-08-06T07:45:12;8.05;;;2.38;;
29848;SDS011;16728;50.832;5.590;2022-08-06T07:48:18;10.68;;;1.90;;
29848;SDS011;16728;50.832;5.590;2022-08-06T07:51:26;7.55;;;1.50;;
29848;SDS011;16728;50.832;5.590;2022-08-06T07:54:34;10.95;;;1.80;;
29848;SDS011;16728;50.832;5.590;2022-08-06T07:57:38;8.10;;;1.55;;
29848;SDS011;16728;50.832;5.590;2022-08-06T08:00:56;8.15;;;1.38;;
29848;SDS011;16728;50.832;5.590;2022-08-06T08:03:59;4.20;;;1.42;;
29848;SDS011;16728;50.832;5.590;2022-08-06T08:07:37;10.13;;;1.75;;
29848;SDS011;16728;50.832;5.590;2022-08-06T08:10:57;5.10;;;1.48;;
29848;SDS011;16728;50.832;5.590;2022-08-06T08:13:59;7.45;;;1.35;;
29848;SDS011;16728;50.832;5.590;2022-08-06T08:17:06;7.85;;;1.40;;
29848;SDS011;16728;50.832;5.590;2022-08-06T08:20:08;5.22;;;1.20;;
29848;SDS011;16728;50.832;5.590;2022-08-06T08:23:20;6.80;;;1.20;;
29848;SDS011;16728;50.832;5.590;2022-08-06T08:26:35;5.28;;;1.42;;
29848;SDS011;16728;50.832;5.590;2022-08-06T08:29:56;8.50;;;1.20;;
29848;SDS011;16728;50.832;5.590;2022-08-06T08:33:00;8.02;;;1.35;;
29848;SDS011;16728;50.832;5.590;2022-08-06T08:36:05;4.68;;;1.00;;
29848;SDS011;16728;50.832;5.590;2022-08-06T08:39:11;3.60;;;0.90;;
29848;SDS011;16728;50.832;5.590;2022-08-06T08:42:17;3.75;;;0.90;;
29848;SDS011;16728;50.832;5.590;2022-08-06T08:45:32;4.55;;;0.95;;
29848;SDS011;16728;50.832;5.590;2022-08-06T08:48:37;5.18;;;1.15;;
29848;SDS011;16728;50.832;5.590;2022-08-06T08:51:39;4.28;;;0.82;;
29848;SDS011;16728;50.832;5.590;2022-08-06T08:54:46;2.17;;;0.80;;
29848;SDS011;16728;50.832;5.590;2022-08-06T08:57:52;5.25;;;0.88;;
29848;SDS011;16728;50.832;5.590;2022-08-06T09:01:16;5.03;;;1.10;;
29848;SDS011;16728;50.832;5.590;2022-08-06T09:04:39;3.55;;;0.77;;
29848;SDS011;16728;50.832;5.590;2022-08-06T09:07:42;4.47;;;1.05;;
29848;SDS011;16728;50.832;5.590;2022-08-06T09:11:02;7.90;;;1.10;;
29848;SDS011;16728;50.832;5.590;2022-08-06T09:14:12;6.25;;;0.70;;
29848;SDS011;16728;50.832;5.590;2022-08-06T09:17:15;2.72;;;0.60;;
29848;SDS011;16728;50.832;5.590;2022-08-06T09:20:38;2.85;;;0.80;;
29848;SDS011;16728;50.832;5.590;2022-08-06T09:23:46;4.55;;;1.10;;
29848;SDS011;16728;50.832;5.590;2022-08-06T09:30:37;2.10;;;0.60;;
29848;SDS011;16728;50.832;5.590;2022-08-06T09:33:41;8.32;;;1.08;;
29848;SDS011;16728;50.832;5.590;2022-08-06T09:37:04;4.43;;;0.60;;
29848;SDS011;16728;50.832;5.590;2022-08-06T09:40:16;2.43;;;0.60;;
29848;SDS011;16728;50.832;5.590;2022-08-06T09:43:26;5.30;;;0.75;;
29848;SDS011;16728;50.832;5.590;2022-08-06T09:46:48;4.57;;;0.50;;
29848;SDS011;16728;50.832;5.590;2022-08-06T09:49:51;2.63;;;0.60;;
29848;SDS011;16728;50.832;5.590;2022-08-06T09:53:01;1.50;;;0.43;;
29848;SDS011;16728;50.832;5.590;2022-08-06T09:56:15;2.47;;;0.60;;
29848;SDS011;16728;50.832;5.590;2022-08-06T09:59:18;2.78;;;0.70;;
29848;SDS011;16728;50.832;5.590;2022-08-06T10:02:20;3.08;;;0.60;;
29848;SDS011;16728;50.832;5.590;2022-08-06T10:05:30;2.72;;;0.70;;
29848;SDS011;16728;50.832;5.590;2022-08-06T10:08:32;1.23;;;0.60;;
29848;SDS011;16728;50.832;5.590;2022-08-06T10:11:36;3.03;;;0.68;;
29848;SDS011;16728;50.832;5.590;2022-08-06T10:14:42;0.88;;;0.47;;
29848;SDS011;16728;50.832;5.590;2022-08-06T10:17:45;1.30;;;0.40;;
29848;SDS011;16728;50.832;5.590;2022-08-06T10:20:59;3.28;;;0.60;;
29848;SDS011;16728;50.832;5.590;2022-08-06T10:24:16;3.40;;;0.57;;
29848;SDS011;16728;50.832;5.590;2022-08-06T10:27:39;2.63;;;1.00;;
29848;SDS011;16728;50.832;5.590;2022-08-06T10:37:02;6.35;;;0.60;;
29848;SDS011;16728;50.832;5.590;2022-08-06T10:40:27;2.13;;;0.50;;
29848;SDS011;16728;50.832;5.590;2022-08-06T10:43:31;1.90;;;0.80;;
29848;SDS011;16728;50.832;5.590;2022-08-06T10:46:35;2.10;;;0.70;;
29848;SDS011;16728;50.832;5.590;2022-08-06T10:49:39;5.38;;;0.80;;
29848;SDS011;16728;50.832;5.590;2022-08-06T10:53:02;1.88;;;0.63;;
29848;SDS011;16728;50.832;5.590;2022-08-06T10:56:11;3.63;;;0.60;;
29848;SDS011;16728;50.832;5.590;2022-08-06T10:59:22;5.63;;;0.77;;
29848;SDS011;16728;50.832;5.590;2022-08-06T11:06:30;2.30;;;0.80;;
29848;SDS011;16728;50.832;5.590;2022-08-06T11:16:57;2.05;;;0.75;;
29848;SDS011;16728;50.832;5.590;2022-08-06T11:20:00;1.73;;;0.50;;
29848;SDS011;16728;50.832;5.590;2022-08-06T11:26:39;1.83;;;0.47;;
29848;SDS011;16728;50.832;5.590;2022-08-06T11:30:06;0.50;;;0.30;;
29848;SDS011;16728;50.832;5.590;2022-08-06T11:33:10;3.33;;;0.50;;
29848;SDS011;16728;50.832;5.590;2022-08-06T11:36:26;2.05;;;0.75;;
29848;SDS011;16728;50.832;5.590;2022-08-06T11:39:29;1.50;;;0.65;;
29848;SDS011;16728;50.832;5.590;2022-08-06T11:42:47;2.33;;;0.50;;
29848;SDS011;16728;50.832;5.590;2022-08-06T11:49:23;2.50;;;0.50;;
29848;SDS011;16728;50.832;5.590;2022-08-06T11:52:44;3.20;;;0.50;;
29848;SDS011;16728;50.832;5.590;2022-08-06T11:56:04;1.10;;;0.43;;
29848;SDS011;16728;50.832;5.590;2022-08-06T11:59:12;2.35;;;0.43;;
29848;SDS011;16728;50.832;5.590;2022-08-06T12:05:45;1.90;;;0.68;;
29848;SDS011;16728;50.832;5.590;2022-08-06T12:09:08;6.35;;;0.77;;
29848;SDS011;16728;50.832;5.590;2022-08-06T12:15:45;4.28;;;0.80;;
29848;SDS011;16728;50.832;5.590;2022-08-06T12:19:00;2.17;;;0.47;;
29848;SDS011;16728;50.832;5.590;2022-08-06T12:22:04;2.38;;;0.40;;
29848;SDS011;16728;50.832;5.590;2022-08-06T12:25:08;2.60;;;0.80;;
29848;SDS011;16728;50.832;5.590;2022-08-06T12:28:14;3.20;;;0.70;;
29848;SDS011;16728;50.832;5.590;2022-08-06T12:31:38;1.27;;;0.50;;
29848;SDS011;16728;50.832;5.590;2022-08-06T12:34:54;2.03;;;0.50;;
29848;SDS011;16728;50.832;5.590;2022-08-06T12:38:00;4.75;;;0.40;;
29848;SDS011;16728;50.832;5.590;2022-08-06T12:41:04;2.00;;;0.45;;
29848;SDS011;16728;50.832;5.590;2022-08-06T12:44:11;1.77;;;0.52;;
29848;SDS011;16728;50.832;5.590;2022-08-06T12:47:15;2.45;;;0.52;;
29848;SDS011;16728;50.832;5.590;2022-08-06T12:50:17;3.78;;;0.63;;
29848;SDS011;16728;50.832;5.590;2022-08-06T12:53:30;2.72;;;0.50;;
29848;SDS011;16728;50.832;5.590;2022-08-06T12:56:33;3.33;;;0.80;;
29848;SDS011;16728;50.832;5.590;2022-08-06T12:59:39;1.85;;;0.50;;
29848;SDS011;16728;50.832;5.590;2022-08-06T13:02:44;2.08;;;0.40;;
29848;SDS011;16728;50.832;5.590;2022-08-06T13:05:49;1.83;;;0.50;;
29848;SDS011;16728;50.832;5.590;2022-08-06T13:09:00;3.45;;;0.50;;
29848;SDS011;16728;50.832;5.590;2022-08-06T13:12:25;0.60;;;0.30;;
29848;SDS011;16728;50.832;5.590;2022-08-06T13:16:01;1.10;;;0.50;;
29848;SDS011;16728;50.832;5.590;2022-08-06T13:19:23;0.95;;;0.40;;
29848;SDS011;16728;50.832;5.590;2022-08-06T13:22:49;2.05;;;0.30;;
29848;SDS011;16728;50.832;5.590;2022-08-06T13:25:51;5.38;;;0.70;;
29848;SDS011;16728;50.832;5.590;2022-08-06T13:29:16;1.13;;;0.30;;
29848;SDS011;16728;50.832;5.590;2022-08-06T13:32:40;2.20;;;0.40;;
29848;SDS011;16728;50.832;5.590;2022-08-06T13:35:49;4.35;;;0.75;;
29848;SDS011;16728;50.832;5.590;2022-08-06T13:38:54;1.70;;;0.40;;
29848;SDS011;16728;50.832;5.590;2022-08-06T13:42:00;2.20;;;0.60;;
29848;SDS011;16728;50.832;5.590;2022-08-06T13:45:21;1.85;;;0.50;;
29848;SDS011;16728;50.832;5.590;2022-08-06T13:48:48;2.22;;;0.60;;
29848;SDS011;16728;50.832;5.590;2022-08-06T13:51:53;3.97;;;0.55;;
29848;SDS011;16728;50.832;5.590;2022-08-06T13:54:56;1.75;;;0.40;;
29848;SDS011;16728;50.832;5.590;2022-08-06T13:57:59;1.00;;;0.50;;
29848;SDS011;16728;50.832;5.590;2022-08-06T14:01:02;2.08;;;0.45;;
29848;SDS011;16728;50.832;5.590;2022-08-06T14:04:07;3.13;;;0.40;;
29848;SDS011;16728;50.832;5.590;2022-08-06T14:07:09;3.70;;;0.50;;
29848;SDS011;16728;50.832;5.590;2022-08-06T14:10:12;0.88;;;0.40;;
29848;SDS011;16728;50.832;5.590;2022-08-06T14:13:17;1.85;;;0.60;;
29848;SDS011;16728;50.832;5.590;2022-08-06T14:16:21;3.17;;;0.50;;
29848;SDS011;16728;50.832;5.590;2022-08-06T14:22:46;2.47;;;0.50;;
29848;SDS011;16728;50.832;5.590;2022-08-06T14:25:49;1.75;;;0.32;;
29848;SDS011;16728;50.832;5.590;2022-08-06T14:29:04;3.05;;;0.50;;
29848;SDS011;16728;50.832;5.590;2022-08-06T14:32:26;2.25;;;0.82;;
29848;SDS011;16728;50.832;5.590;2022-08-06T14:35:29;3.55;;;0.68;;
29848;SDS011;16728;50.832;5.590;2022-08-06T14:38:40;1.33;;;0.40;;
29848;SDS011;16728;50.832;5.590;2022-08-06T14:41:42;0.75;;;0.47;;
29848;SDS011;16728;50.832;5.590;2022-08-06T14:45:03;1.38;;;0.40;;
29848;SDS011;16728;50.832;5.590;2022-08-06T14:48:07;3.00;;;0.50;;
29848;SDS011;16728;50.832;5.590;2022-08-06T14:51:10;1.00;;;0.50;;
29848;SDS011;16728;50.832;5.590;2022-08-06T14:54:13;0.52;;;0.40;;
29848;SDS011;16728;50.832;5.590;2022-08-06T14:57:17;2.03;;;0.60;;
29848;SDS011;16728;50.832;5.590;2022-08-06T15:03:38;2.40;;;0.70;;
29848;SDS011;16728;50.832;5.590;2022-08-06T15:06:43;2.08;;;0.70;;
29848;SDS011;16728;50.832;5.590;2022-08-06T15:09:57;1.33;;;0.50;;
29848;SDS011;16728;50.832;5.590;2022-08-06T15:13:19;4.13;;;1.00;;
29848;SDS011;16728;50.832;5.590;2022-08-06T15:16:31;8.13;;;1.20;;
29848;SDS011;16728;50.832;5.590;2022-08-06T15:19:53;2.95;;;0.70;;
29848;SDS011;16728;50.832;5.590;2022-08-06T15:22:55;2.17;;;0.93;;
29848;SDS011;16728;50.832;5.590;2022-08-06T15:26:00;2.00;;;0.80;;
29848;SDS011;16728;50.832;5.590;2022-08-06T15:29:22;3.20;;;1.25;;
29848;SDS011;16728;50.832;5.590;2022-08-06T15:32:35;0.98;;;0.75;;
29848;SDS011;16728;50.832;5.590;2022-08-06T15:35:38;2.25;;;0.90;;
29848;SDS011;16728;50.832;5.590;2022-08-06T15:38:58;4.07;;;0.93;;
29848;SDS011;16728;50.832;5.590;2022-08-06T15:42:01;2.08;;;1.00;;
29848;SDS011;16728;50.832;5.590;2022-08-06T15:45:03;2.10;;;1.10;;
29848;SDS011;16728;50.832;5.590;2022-08-06T15:48:06;4.00;;;1.10;;
29848;SDS011;16728;50.832;5.590;2022-08-06T15:51:09;1.42;;;0.95;;
29848;SDS011;16728;50.832;5.590;2022-08-06T15:54:31;3.88;;;0.98;;
29848;SDS011;16728;50.832;5.590;2022-08-06T15:57:38;1.55;;;0.98;;
29848;SDS011;16728;50.832;5.590;2022-08-06T16:01:00;2.95;;;1.10;;
29848;SDS011;16728;50.832;5.590;2022-08-06T16:04:08;3.20;;;1.00;;
29848;SDS011;16728;50.832;5.590;2022-08-06T16:07:11;4.15;;;1.00;;
29848;SDS011;16728;50.832;5.590;2022-08-06T16:10:14;4.37;;;1.00;;
29848;SDS011;16728;50.832;5.590;2022-08-06T16:13:32;3.45;;;0.82;;
29848;SDS011;16728;50.832;5.590;2022-08-06T16:16:34;2.03;;;1.20;;
29848;SDS011;16728;50.832;5.590;2022-08-06T16:19:37;2.53;;;1.00;;
29848;SDS011;16728;50.832;5.590;2022-08-06T16:22:52;1.75;;;1.20;;
29848;SDS011;16728;50.832;5.590;2022-08-06T16:25:54;1.67;;;1.17;;
29848;SDS011;16728;50.832;5.590;2022-08-06T16:29:16;3.33;;;1.20;;
29848;SDS011;16728;50.832;5.590;2022-08-06T16:32:20;2.75;;;1.45;;
29848;SDS011;16728;50.832;5.590;2022-08-06T16:35:26;1.75;;;1.27;;
29848;SDS011;16728;50.832;5.590;2022-08-06T16:38:33;5.82;;;1.60;;
29848;SDS011;16728;50.832;5.590;2022-08-06T16:41:38;3.80;;;1.30;;
29848;SDS011;16728;50.832;5.590;2022-08-06T16:44:59;3.95;;;1.42;;
29848;SDS011;16728;50.832;5.590;2022-08-06T16:48:21;2.22;;;1.27;;
29848;SDS011;16728;50.832;5.590;2022-08-06T16:51:28;1.48;;;1.08;;
29848;SDS011;16728;50.832;5.590;2022-08-06T16:54:51;1.92;;;1.25;;
29848;SDS011;16728;50.832;5.590;2022-08-06T16:57:54;2.75;;;1.13;;
29848;SDS011;16728;50.832;5.590;2022-08-06T17:01:02;2.67;;;1.20;;
29848;SDS011;16728;50.832;5.590;2022-08-06T17:04:26;1.52;;;1.05;;
29848;SDS011;16728;50.832;5.590;2022-08-06T17:07:32;2.20;;;1.20;;
29848;SDS011;16728;50.832;5.590;2022-08-06T17:10:42;2.40;;;1.60;;
29848;SDS011;16728;50.832;5.590;2022-08-06T17:13:44;6.28;;;1.58;;
29848;SDS011;16728;50.832;5.590;2022-08-06T17:16:54;3.70;;;1.10;;
29848;SDS011;16728;50.832;5.590;2022-08-06T17:20:02;2.63;;;1.23;;
29848;SDS011;16728;50.832;5.590;2022-08-06T17:23:08;3.00;;;1.15;;
29848;SDS011;16728;50.832;5.590;2022-08-06T17:26:11;3.30;;;0.98;;
29848;SDS011;16728;50.832;5.590;2022-08-06T17:29:33;3.63;;;1.10;;
29848;SDS011;16728;50.832;5.590;2022-08-06T17:32:47;2.80;;;1.00;;
29848;SDS011;16728;50.832;5.590;2022-08-06T17:35:55;1.02;;;0.75;;
29848;SDS011;16728;50.832;5.590;2022-08-06T17:39:17;3.20;;;1.08;;
29848;SDS011;16728;50.832;5.590;2022-08-06T17:42:29;2.72;;;1.02;;
29848;SDS011;16728;50.832;5.590;2022-08-06T17:45:33;3.25;;;0.85;;
29848;SDS011;16728;50.832;5.590;2022-08-06T17:48:38;2.10;;;0.98;;
29848;SDS011;16728;50.832;5.590;2022-08-06T17:51:40;2.15;;;0.65;;
29848;SDS011;16728;50.832;5.590;2022-08-06T17:54:42;3.05;;;0.80;;
29848;SDS011;16728;50.832;5.590;2022-08-06T17:57:54;1.75;;;0.70;;
29848;SDS011;16728;50.832;5.590;2022-08-06T18:01:16;5.15;;;0.95;;
29848;SDS011;16728;50.832;5.590;2022-08-06T18:04:40;1.25;;;0.77;;
29848;SDS011;16728;50.832;5.590;2022-08-06T18:07:44;2.10;;;0.90;;
29848;SDS011;16728;50.832;5.590;2022-08-06T18:11:06;1.40;;;0.77;;
29848;SDS011;16728;50.832;5.590;2022-08-06T18:14:14;1.50;;;0.77;;
29848;SDS011;16728;50.832;5.590;2022-08-06T18:17:33;2.65;;;0.77;;
29848;SDS011;16728;50.832;5.590;2022-08-06T18:20:55;1.77;;;1.00;;
29848;SDS011;16728;50.832;5.590;2022-08-06T18:23:56;2.42;;;0.77;;
29848;SDS011;16728;50.832;5.590;2022-08-06T18:27:00;2.80;;;0.80;;
29848;SDS011;16728;50.832;5.590;2022-08-06T18:30:13;4.13;;;1.00;;
29848;SDS011;16728;50.832;5.590;2022-08-06T18:33:40;3.05;;;0.77;;
29848;SDS011;16728;50.832;5.590;2022-08-06T18:36:46;2.15;;;0.98;;
29848;SDS011;16728;50.832;5.590;2022-08-06T18:39:48;1.35;;;0.70;;
29848;SDS011;16728;50.832;5.590;2022-08-06T18:43:10;1.65;;;0.85;;
29848;SDS011;16728;50.832;5.590;2022-08-06T18:46:23;1.10;;;0.70;;
29848;SDS011;16728;50.832;5.590;2022-08-06T18:49:47;2.03;;;0.85;;
29848;SDS011;16728;50.832;5.590;2022-08-06T18:52:51;2.53;;;0.80;;
29848;SDS011;16728;50.832;5.590;2022-08-06T18:55:56;2.85;;;0.90;;
29848;SDS011;16728;50.832;5.590;2022-08-06T19:02:25;1.45;;;0.95;;
29848;SDS011;16728;50.832;5.590;2022-08-06T19:05:30;4.00;;;1.10;;
29848;SDS011;16728;50.832;5.590;2022-08-06T19:08:45;2.70;;;1.08;;
29848;SDS011;16728;50.832;5.590;2022-08-06T19:11:49;6.00;;;1.05;;
29848;SDS011;16728;50.832;5.590;2022-08-06T19:14:52;2.05;;;0.93;;
29848;SDS011;16728;50.832;5.590;2022-08-06T19:17:54;3.90;;;1.20;;
29848;SDS011;16728;50.832;5.590;2022-08-06T19:21:16;1.95;;;0.93;;
29848;SDS011;16728;50.832;5.590;2022-08-06T19:24:18;2.83;;;1.15;;
29848;SDS011;16728;50.832;5.590;2022-08-06T19:27:37;5.57;;;1.40;;
29848;SDS011;16728;50.832;5.590;2022-08-06T19:30:59;3.20;;;1.50;;
29848;SDS011;16728;50.832;5.590;2022-08-06T19:34:04;2.83;;;1.10;;
29848;SDS011;16728;50.832;5.590;2022-08-06T19:37:09;1.88;;;0.80;;
29848;SDS011;16728;50.832;5.590;2022-08-06T19:40:31;2.47;;;1.00;;
29848;SDS011;16728;50.832;5.590;2022-08-06T19:43:53;1.83;;;0.90;;
29848;SDS011;16728;50.832;5.590;2022-08-06T19:47:14;0.88;;;0.70;;
29848;SDS011;16728;50.832;5.590;2022-08-06T19:50:22;3.35;;;0.90;;
29848;SDS011;16728;50.832;5.590;2022-08-06T19:53:28;2.10;;;0.93;;
29848;SDS011;16728;50.832;5.590;2022-08-06T19:56:33;2.50;;;0.80;;
29848;SDS011;16728;50.832;5.590;2022-08-06T19:59:35;1.23;;;1.10;;
29848;SDS011;16728;50.832;5.590;2022-08-06T20:02:58;1.27;;;0.88;;
29848;SDS011;16728;50.832;5.590;2022-08-06T20:06:01;1.58;;;0.90;;
29848;SDS011;16728;50.832;5.590;2022-08-06T20:09:25;1.48;;;0.75;;
29848;SDS011;16728;50.832;5.590;2022-08-06T20:12:49;2.75;;;0.95;;
29848;SDS011;16728;50.832;5.590;2022-08-06T20:15:51;2.53;;;0.88;;
29848;SDS011;16728;50.832;5.590;2022-08-06T20:18:54;2.08;;;0.90;;
29848;SDS011;16728;50.832;5.590;2022-08-06T20:21:56;1.70;;;0.85;;
29848;SDS011;16728;50.832;5.590;2022-08-06T20:24:58;4.82;;;0.90;;
29848;SDS011;16728;50.832;5.590;2022-08-06T20:28:18;1.90;;;0.70;;
29848;SDS011;16728;50.832;5.590;2022-08-06T20:31:40;3.95;;;1.70;;
29848;SDS011;16728;50.832;5.590;2022-08-06T20:34:42;3.13;;;1.08;;
29848;SDS011;16728;50.832;5.590;2022-08-06T20:37:48;2.70;;;1.20;;
29848;SDS011;16728;50.832;5.590;2022-08-06T20:40:52;5.30;;;1.13;;